Time;durP1;ratioP1;P1;durP2;ratioP2;P2;SDS_P1;SDS_P2;PMS_P1;PMS_P2;Temp;Humidity;BMP_temperature;BMP_pressure;BME280_temperature;BME280_humidity;BME280_pressure;Samples;Min_cycle;Max_cycle;Signal;HPM_P1;HPM_P2
2022/01/11 00:00:41;;;;;;;;;;;19.40;45.30;;;;;;5024351;28;43391;-77
2022/01/11 00:03:07;;;;;;;;;;;19.40;45.30;;;;;;5031580;28;43006;-76
2022/01/11 00:05:38;;;;;;;;;;;19.40;45.10;;;;;;5023532;28;43838;-71
2022/01/11 00:08:07;;;;;;;;;;;19.40;46.10;;;;;;5028694;28;43195;-75
2022/01/11 00:10:38;;;;;;;;;;;19.40;46.10;;;;;;5023914;28;43531;-73
2022/01/11 00:13:04;;;;;;;;;;;19.40;45.80;;;;;;5022903;28;43200;-74
2022/01/11 00:15:30;;;;;;;;;;;19.40;46.30;;;;;;5021752;28;43531;-75
2022/01/11 00:17:57;;;;;;;;;;;19.40;46.30;;;;;;5022430;28;43062;-74
2022/01/11 00:20:23;;;;;;;;;;;19.40;46.40;;;;;;5021145;28;43114;-76
2022/01/11 00:24:27;;;;;;;;;;;19.40;46.30;;;;;;5022701;28;43393;-74
2022/01/11 00:25:39;;;;;;;;;;;19.40;46.40;;;;;;5022608;28;43112;-74
2022/01/11 00:28:05;;;;;;;;;;;19.40;46.40;;;;;;5028268;28;43018;-77
2022/01/11 00:30:33;;;;;;;;;;;19.40;46.50;;;;;;5021502;28;43833;-77
2022/01/11 00:33:02;;;;;;;;;;;19.40;46.40;;;;;;5025010;28;43004;-77
2022/01/11 00:35:38;;;;;;;;;;;19.40;46.50;;;;;;5024235;28;44561;-77
2022/01/11 00:38:04;;;;;;;;;;;19.40;46.60;;;;;;5025061;28;43079;-75
2022/01/11 00:40:29;;;;;;;;;;;19.40;46.70;;;;;;5021836;28;43614;-74
2022/01/11 00:42:59;;;;;;;;;;;19.40;46.60;;;;;;5021896;28;43081;-77
2022/01/11 00:45:25;;;;;;;;;;;19.40;46.70;;;;;;5021846;28;43044;-76
2022/01/11 00:47:51;;;;;;;;;;;19.40;46.70;;;;;;5039640;28;42852;-75
2022/01/11 00:50:17;;;;;;;;;;;19.40;46.70;;;;;;5040640;28;44092;-75
2022/01/11 00:52:43;;;;;;;;;;;19.40;46.70;;;;;;5021175;28;42944;-77
2022/01/11 00:55:09;;;;;;;;;;;19.40;46.90;;;;;;5024132;28;42880;-77
2022/01/11 00:57:34;;;;;;;;;;;19.40;47.00;;;;;;5029571;28;43071;-79
2022/01/11 01:00:00;;;;;;;;;;;19.40;46.90;;;;;;5022033;28;43024;-77
2022/01/11 01:02:25;;;;;;;;;;;19.40;47.00;;;;;;5038457;28;43128;-78
2022/01/11 01:04:51;;;;;;;;;;;19.40;47.10;;;;;;5041296;28;44142;-77
2022/01/11 01:07:16;;;;;;;;;;;19.40;47.30;;;;;;5023736;28;43119;-74
2022/01/11 01:10:01;;;;;;;;;;;19.40;47.30;;;;;;5040717;28;42936;-78
2022/01/11 01:12:27;;;;;;;;;;;19.40;47.50;;;;;;5042988;28;43036;-78
2022/01/11 01:14:52;;;;;;;;;;;19.40;47.60;;;;;;5042712;28;43210;-78
2022/01/11 01:17:18;;;;;;;;;;;19.40;47.60;;;;;;5043626;28;42866;-78
2022/01/11 01:19:43;;;;;;;;;;;19.40;47.80;;;;;;5044732;28;42878;-78
2022/01/11 01:22:09;;;;;;;;;;;19.40;47.80;;;;;;5045975;28;43178;-77
2022/01/11 01:24:35;;;;;;;;;;;19.40;47.90;;;;;;5045604;28;42936;-78
2022/01/11 01:27:00;;;;;;;;;;;19.40;47.90;;;;;;5045873;28;42972;-73
2022/01/11 01:29:26;;;;;;;;;;;19.40;48.00;;;;;;5044885;28;43308;-77
2022/01/11 01:31:51;;;;;;;;;;;19.40;48.20;;;;;;5046766;28;42866;-78
2022/01/11 01:34:17;;;;;;;;;;;19.40;48.30;;;;;;5046930;28;43632;-79
2022/01/11 01:36:43;;;;;;;;;;;19.40;48.50;;;;;;5046407;28;42837;-79
2022/01/11 01:39:09;;;;;;;;;;;19.40;48.60;;;;;;5046425;28;42921;-77
2022/01/11 01:41:34;;;;;;;;;;;19.40;48.60;;;;;;5046410;28;43422;-76
2022/01/11 01:44:02;;;;;;;;;;;19.40;49.00;;;;;;5046320;28;42901;-76
2022/01/11 01:46:27;;;;;;;;;;;19.40;48.90;;;;;;5044638;28;43272;-79
2022/01/11 01:48:55;;;;;;;;;;;19.40;49.10;;;;;;5045917;28;42966;-78
2022/01/11 01:51:21;;;;;;;;;;;19.40;49.20;;;;;;5046112;28;42805;-74
2022/01/11 01:53:48;;;;;;;;;;;19.40;49.30;;;;;;5046212;28;44182;-77
2022/01/11 01:56:15;;;;;;;;;;;19.40;49.40;;;;;;5047254;28;43065;-78
2022/01/11 01:58:42;;;;;;;;;;;19.40;49.50;;;;;;5050332;28;42987;-77
2022/01/11 02:01:08;;;;;;;;;;;19.40;49.70;;;;;;5046655;28;42941;-77
2022/01/11 02:03:39;;;;;;;;;;;19.40;49.70;;;;;;5045588;28;43006;-77
2022/01/11 02:06:12;;;;;;;;;;;19.40;49.90;;;;;;5045684;28;42893;-78
2022/01/11 02:08:38;;;;;;;;;;;19.40;50.00;;;;;;5045584;28;44712;-78
2022/01/11 02:11:05;;;;;;;;;;;19.40;49.90;;;;;;5045399;28;42934;-77
2022/01/11 02:13:30;;;;;;;;;;;19.40;50.00;;;;;;5045504;28;43188;-77
2022/01/11 02:15:57;;;;;;;;;;;19.30;50.00;;;;;;5045923;28;43105;-73
2022/01/11 02:18:25;;;;;;;;;;;19.30;50.10;;;;;;5044944;28;42950;-74
2022/01/11 02:20:51;;;;;;;;;;;19.40;50.20;;;;;;5046367;28;43029;-78
2022/01/11 02:23:18;;;;;;;;;;;19.30;50.20;;;;;;5045845;28;43456;-76
2022/01/11 02:25:44;;;;;;;;;;;19.30;50.30;;;;;;5046092;28;42913;-78
2022/01/11 02:28:15;;;;;;;;;;;19.30;50.40;;;;;;5026847;28;44415;-77
2022/01/11 02:30:41;;;;;;;;;;;19.30;50.40;;;;;;5045309;28;42996;-76
2022/01/11 02:33:14;;;;;;;;;;;19.30;50.70;;;;;;5044274;28;43624;-78
2022/01/11 02:35:40;;;;;;;;;;;19.40;50.60;;;;;;5044827;28;42985;-77
2022/01/11 02:38:05;;;;;;;;;;;19.50;50.90;;;;;;5045062;28;42928;-77
2022/01/11 02:40:31;;;;;;;;;;;19.30;50.60;;;;;;5044826;28;42869;-78
2022/01/11 02:42:56;;;;;;;;;;;19.30;50.60;;;;;;5045045;28;42901;-77
2022/01/11 02:45:22;;;;;;;;;;;19.30;50.70;;;;;;5045524;28;43059;-78
2022/01/11 02:47:48;;;;;;;;;;;19.40;50.70;;;;;;5045561;28;43475;-76
2022/01/11 02:50:14;;;;;;;;;;;19.30;50.70;;;;;;5026311;28;42845;-77
2022/01/11 02:52:40;;;;;;;;;;;19.30;50.60;;;;;;5044790;28;42953;-77
2022/01/11 02:55:08;;;;;;;;;;;19.40;50.50;;;;;;5044793;28;43037;-77
2022/01/11 02:57:34;;;;;;;;;;;19.30;50.40;;;;;;5045321;28;43012;-77
2022/01/11 02:59:59;;;;;;;;;;;19.30;50.40;;;;;;5046109;28;42942;-74
2022/01/11 03:02:25;;;;;;;;;;;19.30;50.20;;;;;;5045224;28;43359;-78
2022/01/11 03:04:51;;;;;;;;;;;19.30;50.20;;;;;;5045015;28;42728;-73
2022/01/11 03:07:19;;;;;;;;;;;19.40;50.30;;;;;;5042532;28;63442;-77
2022/01/11 03:12:21;;;;;;;;;;;19.40;50.20;;;;;;5044550;28;42975;-76
2022/01/11 03:14:47;;;;;;;;;;;19.30;50.00;;;;;;5044077;28;42932;-77
2022/01/11 03:17:12;;;;;;;;;;;19.30;50.10;;;;;;5044909;28;43016;-77
2022/01/11 03:19:38;;;;;;;;;;;19.40;50.10;;;;;;5044946;28;42917;-78
2022/01/11 03:22:04;;;;;;;;;;;19.40;50.30;;;;;;5044817;28;43639;-77
2022/01/11 03:24:29;;;;;;;;;;;19.30;50.30;;;;;;5044107;28;43085;-76
2022/01/11 03:26:55;;;;;;;;;;;19.40;50.50;;;;;;5045035;28;42822;-78
2022/01/11 03:29:20;;;;;;;;;;;19.40;50.30;;;;;;5044887;28;42977;-77
2022/01/11 03:31:46;;;;;;;;;;;19.30;50.40;;;;;;5044836;28;42806;-77
2022/01/11 03:34:18;;;;;;;;;;;19.40;50.40;;;;;;5045181;28;43163;-77
2022/01/11 03:36:43;;;;;;;;;;;19.30;50.40;;;;;;5045020;28;43961;-77
2022/01/11 03:39:09;;;;;;;;;;;19.30;50.40;;;;;;5043897;28;42972;-76
2022/01/11 03:41:35;;;;;;;;;;;19.30;50.40;;;;;;5043531;28;43316;-78
2022/01/11 03:44:00;;;;;;;;;;;19.40;50.50;;;;;;5044389;28;43016;-76
2022/01/11 03:46:26;;;;;;;;;;;19.30;50.40;;;;;;5043997;28;43761;-76
2022/01/11 03:48:51;;;;;;;;;;;19.40;50.50;;;;;;5044447;28;43022;-77
2022/01/11 03:51:17;;;;;;;;;;;19.30;50.50;;;;;;5036297;28;42948;-78
2022/01/11 03:54:09;;;;;;;;;;;19.30;50.50;;;;;;5044044;28;42933;-77
2022/01/11 03:56:28;;;;;;;;;;;19.30;50.30;;;;;;5042442;28;45674;-77
2022/01/11 03:58:54;;;;;;;;;;;19.30;50.40;;;;;;5043768;28;42920;-77
2022/01/11 04:01:20;;;;;;;;;;;19.30;50.50;;;;;;5044090;28;43003;-77
2022/01/11 04:03:46;;;;;;;;;;;19.30;50.50;;;;;;5044288;28;42871;-78
2022/01/11 04:06:16;;;;;;;;;;;19.30;50.40;;;;;;5043974;28;46016;-78
2022/01/11 04:08:42;;;;;;;;;;;19.30;50.50;;;;;;5044434;28;42871;-78
2022/01/11 04:11:07;;;;;;;;;;;19.30;50.30;;;;;;5044083;28;43036;-76
2022/01/11 04:13:33;;;;;;;;;;;19.20;50.30;;;;;;5043269;28;42896;-78
2022/01/11 04:15:58;;;;;;;;;;;19.30;50.30;;;;;;5043852;28;42861;-73
2022/01/11 04:18:24;;;;;;;;;;;19.30;50.30;;;;;;5044487;28;42905;-73
2022/01/11 04:20:49;;;;;;;;;;;19.30;50.30;;;;;;5044704;28;43904;-73
2022/01/11 04:23:15;;;;;;;;;;;19.30;50.30;;;;;;5044207;28;42939;-76
2022/01/11 04:25:40;;;;;;;;;;;19.30;50.20;;;;;;5044055;28;43511;-75
2022/01/11 04:28:06;;;;;;;;;;;19.30;50.70;;;;;;5025912;28;42974;-75
2022/01/11 04:30:32;;;;;;;;;;;19.30;50.20;;;;;;5043059;28;43042;-76
2022/01/11 04:32:57;;;;;;;;;;;19.30;50.20;;;;;;5043755;28;43130;-77
2022/01/11 04:35:23;;;;;;;;;;;19.30;50.20;;;;;;5043258;28;42870;-77
2022/01/11 04:37:48;;;;;;;;;;;19.30;50.20;;;;;;5043439;28;43252;-75
2022/01/11 04:40:14;;;;;;;;;;;19.30;50.20;;;;;;5042591;28;43711;-76
2022/01/11 04:42:40;;;;;;;;;;;19.20;50.30;;;;;;5042858;28;43004;-75
2022/01/11 04:45:06;;;;;;;;;;;19.20;50.40;;;;;;5043208;28;43006;-75
2022/01/11 04:47:33;;;;;;;;;;;19.20;50.50;;;;;;5042580;28;42897;-77
2022/01/11 04:49:59;;;;;;;;;;;19.30;50.60;;;;;;5043629;28;42830;-74
2022/01/11 04:52:24;;;;;;;;;;;19.20;50.60;;;;;;5025408;28;42917;-75
2022/01/11 04:54:50;;;;;;;;;;;19.30;50.50;;;;;;5045597;28;42957;-75
2022/01/11 04:57:15;;;;;;;;;;;19.20;50.40;;;;;;5048090;28;43037;-77
2022/01/11 04:59:41;;;;;;;;;;;19.20;50.50;;;;;;5049176;28;43007;-75
2022/01/11 05:02:06;;;;;;;;;;;19.20;50.50;;;;;;5047227;28;42948;-74
2022/01/11 05:04:32;;;;;;;;;;;19.20;50.70;;;;;;5047209;28;42910;-75
2022/01/11 05:06:58;;;;;;;;;;;19.20;50.60;;;;;;5048356;28;43106;-76
2022/01/11 05:09:23;;;;;;;;;;;19.20;50.50;;;;;;5048673;28;43974;-73
2022/01/11 05:11:50;;;;;;;;;;;19.20;50.60;;;;;;5047567;28;42924;-74
2022/01/11 05:14:15;;;;;;;;;;;19.30;50.50;;;;;;5047026;28;43237;-76
2022/01/11 05:16:41;;;;;;;;;;;19.20;50.50;;;;;;5046533;28;42855;-76
2022/01/11 05:19:12;;;;;;;;;;;19.20;50.50;;;;;;5045715;28;43676;-73
2022/01/11 05:21:38;;;;;;;;;;;19.20;50.50;;;;;;5046679;28;43060;-77
2022/01/11 05:24:04;;;;;;;;;;;19.20;50.50;;;;;;5045984;28;44052;-75
2022/01/11 05:26:29;;;;;;;;;;;19.20;50.60;;;;;;5046464;28;43162;-75
2022/01/11 05:28:55;;;;;;;;;;;19.20;50.50;;;;;;5046565;28;43007;-75
2022/01/11 05:31:20;;;;;;;;;;;19.20;50.60;;;;;;5035809;28;43271;-70
2022/01/11 05:33:46;;;;;;;;;;;19.20;50.50;;;;;;5040512;28;42817;-75
2022/01/11 05:36:11;;;;;;;;;;;19.20;50.50;;;;;;5044900;28;42970;-75
2022/01/11 05:38:37;;;;;;;;;;;19.20;50.50;;;;;;5045788;28;43634;-76
2022/01/11 05:41:02;;;;;;;;;;;19.20;50.60;;;;;;5045332;28;44384;-75
2022/01/11 05:43:28;;;;;;;;;;;19.20;50.50;;;;;;5025879;28;44495;-73
2022/01/11 05:45:53;;;;;;;;;;;19.20;50.60;;;;;;5045303;28;42963;-73
2022/01/11 05:48:20;;;;;;;;;;;19.20;50.50;;;;;;5036366;28;43508;-72
2022/01/11 05:50:46;;;;;;;;;;;19.20;50.60;;;;;;5037292;28;42928;-76
2022/01/11 05:53:12;;;;;;;;;;;19.20;50.80;;;;;;5034018;28;43019;-77
2022/01/11 05:55:37;;;;;;;;;;;19.10;50.70;;;;;;5040902;28;43447;-73
2022/01/11 05:58:04;;;;;;;;;;;19.20;50.70;;;;;;5044696;28;43410;-76
2022/01/11 06:00:30;;;;;;;;;;;19.10;50.80;;;;;;5035233;28;43125;-79
2022/01/11 06:02:55;;;;;;;;;;;19.20;51.20;;;;;;5044776;28;43055;-78
2022/01/11 06:05:23;;;;;;;;;;;19.20;50.70;;;;;;5025952;28;43015;-75
2022/01/11 06:07:48;;;;;;;;;;;15.50;48.90;;;;;;5040382;28;42971;-74
2022/01/11 06:10:14;;;;;;;;;;;19.10;50.70;;;;;;5044129;28;42996;-73
2022/01/11 06:12:40;;;;;;;;;;;19.10;50.70;;;;;;5044962;28;43291;-72
2022/01/11 06:15:05;;;;;;;;;;;19.10;50.80;;;;;;5045011;28;43186;-72
2022/01/11 06:17:31;;;;;;;;;;;19.20;50.70;;;;;;5036685;28;42861;-77
2022/01/11 06:19:57;;;;;;;;;;;19.10;50.70;;;;;;5032867;28;42881;-78
2022/01/11 06:22:24;;;;;;;;;;;19.10;50.70;;;;;;5042123;28;44017;-78
2022/01/11 06:24:49;;;;;;;;;;;19.10;50.70;;;;;;5034446;28;43086;-76
2022/01/11 06:27:15;;;;;;;;;;;19.10;50.80;;;;;;5038682;28;43153;-76
2022/01/11 06:29:41;;;;;;;;;;;19.10;50.80;;;;;;5043587;28;42972;-72
2022/01/11 06:32:06;;;;;;;;;;;19.10;50.70;;;;;;5043148;28;43230;-78
2022/01/11 06:34:32;;;;;;;;;;;19.10;50.80;;;;;;5041189;28;43319;-79
2022/01/11 06:36:59;;;;;;;;;;;19.10;51.00;;;;;;5030285;28;42972;-79
2022/01/11 06:39:26;;;;;;;;;;;19.10;50.90;;;;;;5042437;28;43042;-80
2022/01/11 06:41:51;;;;;;;;;;;19.10;51.00;;;;;;5043570;28;43996;-73
2022/01/11 06:44:17;;;;;;;;;;;19.10;50.90;;;;;;5029314;28;43003;-75
2022/01/11 06:46:42;;;;;;;;;;;19.10;51.00;;;;;;5035600;28;43042;-75
2022/01/11 06:49:08;;;;;;;;;;;19.10;50.90;;;;;;5028193;28;43247;-77
2022/01/11 06:51:35;;;;;;;;;;;19.10;51.00;;;;;;5042778;28;43064;-73
2022/01/11 06:54:00;;;;;;;;;;;19.10;51.00;;;;;;5043896;28;43079;-73
2022/01/11 06:56:26;;;;;;;;;;;19.10;51.00;;;;;;5044468;28;42913;-74
2022/01/11 06:58:51;;;;;;;;;;;19.10;51.00;;;;;;5044892;28;43209;-75
2022/01/11 07:01:17;;;;;;;;;;;19.10;51.00;;;;;;5043331;28;42995;-73
2022/01/11 07:03:43;;;;;;;;;;;19.10;50.90;;;;;;5044761;28;43062;-77
2022/01/11 07:06:09;;;;;;;;;;;19.10;50.90;;;;;;5040997;28;43531;-75
2022/01/11 07:08:35;;;;;;;;;;;19.10;50.90;;;;;;5039809;28;42924;-73
2022/01/11 07:11:00;;;;;;;;;;;18.90;37.90;;;;;;5043728;28;43074;-78
2022/01/11 07:13:30;;;;;;;;;;;18.90;45.40;;;;;;5044176;28;43052;-69
2022/01/11 07:15:56;;;;;;;;;;;18.90;50.20;;;;;;5016304;28;43058;-76
2022/01/11 07:18:21;;;;;;;;;;;18.90;50.00;;;;;;5042573;28;43217;-71
2022/01/11 07:20:47;;;;;;;;;;;19.00;49.60;;;;;;5042848;28;43056;-78
2022/01/11 07:23:12;;;;;;;;;;;19.00;49.60;;;;;;5037747;28;43005;-78
2022/01/11 07:25:38;;;;;;;;;;;19.00;49.40;;;;;;5043596;28;43661;-76
2022/01/11 07:28:06;;;;;;;;;;;19.00;49.30;;;;;;5045487;28;42991;-75
2022/01/11 07:30:32;;;;;;;;;;;19.00;49.60;;;;;;5034735;28;43850;-75
2022/01/11 07:32:57;;;;;;;;;;;19.10;50.10;;;;;;5035745;28;43124;-72
2022/01/11 07:35:23;;;;;;;;;;;19.10;49.90;;;;;;5043861;28;43174;-72
2022/01/11 07:37:50;;;;;;;;;;;19.00;50.10;;;;;;5030117;28;42894;-72
2022/01/11 07:40:15;;;;;;;;;;;19.00;50.20;;;;;;5040079;28;43237;-75
2022/01/11 07:42:41;;;;;;;;;;;19.00;50.20;;;;;;5044340;28;42898;-75
2022/01/11 07:45:07;;;;;;;;;;;19.00;50.30;;;;;;5044236;28;42937;-70
2022/01/11 07:47:32;;;;;;;;;;;19.00;50.30;;;;;;5043093;28;43019;-76
2022/01/11 07:49:58;;;;;;;;;;;19.00;50.30;;;;;;5043207;28;43496;-73
2022/01/11 07:52:23;;;;;;;;;;;19.00;50.40;;;;;;5044525;28;42893;-75
2022/01/11 07:54:49;;;;;;;;;;;19.00;50.50;;;;;;5044007;28;42963;-78
2022/01/11 07:57:15;;;;;;;;;;;19.00;50.40;;;;;;5044201;28;42970;-75
2022/01/11 07:59:40;;;;;;;;;;;19.00;50.50;;;;;;5044248;28;43750;-73
2022/01/11 08:02:06;;;;;;;;;;;19.00;50.50;;;;;;5030142;28;43066;-78
2022/01/11 08:04:31;;;;;;;;;;;19.00;50.50;;;;;;5041856;28;43569;-71
2022/01/11 08:06:58;;;;;;;;;;;19.00;50.50;;;;;;5045517;28;42985;-72
2022/01/11 08:09:24;;;;;;;;;;;19.00;50.60;;;;;;5044286;28;43084;-77
2022/01/11 08:11:50;;;;;;;;;;;19.00;50.50;;;;;;5039883;28;43536;-71
2022/01/11 08:14:16;;;;;;;;;;;19.00;50.60;;;;;;5042398;28;43607;-79
2022/01/11 08:16:42;;;;;;;;;;;19.00;50.50;;;;;;5042945;28;43189;-73
2022/01/11 08:19:07;;;;;;;;;;;19.00;50.60;;;;;;5042203;28;43105;-75
2022/01/11 08:21:33;;;;;;;;;;;19.00;50.60;;;;;;5042643;28;43234;-74
2022/01/11 08:23:59;;;;;;;;;;;19.00;50.90;;;;;;5043912;28;42987;-75
2022/01/11 08:26:24;;;;;;;;;;;19.00;51.00;;;;;;5041875;28;43068;-77
2022/01/11 08:28:50;;;;;;;;;;;18.90;50.90;;;;;;5046685;28;42870;-71
2022/01/11 08:31:15;;;;;;;;;;;18.90;50.90;;;;;;5048388;28;43115;-74
2022/01/11 08:33:41;;;;;;;;;;;19.00;50.40;;;;;;5047316;28;43687;-71
2022/01/11 08:36:06;;;;;;;;;;;18.90;50.60;;;;;;5047357;28;42922;-74
2022/01/11 08:38:32;;;;;;;;;;;18.90;50.10;;;;;;5046406;28;43281;-74
2022/01/11 08:40:58;;;;;;;;;;;18.90;49.40;;;;;;5046251;28;43074;-73
2022/01/11 08:43:23;;;;;;;;;;;18.90;48.80;;;;;;5038080;28;43956;-72
2022/01/11 08:45:49;;;;;;;;;;;18.90;47.90;;;;;;5047709;28;42959;-75
2022/01/11 08:48:14;;;;;;;;;;;18.70;43.50;;;;;;5045111;28;43645;-72
2022/01/11 08:50:40;;;;;;;;;;;18.80;47.50;;;;;;5031579;28;43007;-73
2022/01/11 08:53:06;;;;;;;;;;;18.80;46.90;;;;;;5040360;28;43021;-72
2022/01/11 08:55:32;;;;;;;;;;;18.80;47.00;;;;;;5026424;28;43132;-77
2022/01/11 08:57:57;;;;;;;;;;;18.80;46.50;;;;;;5046669;28;42991;-79
2022/01/11 09:00:23;;;;;;;;;;;18.80;46.50;;;;;;5047398;28;42763;-70
2022/01/11 09:02:53;;;;;;;;;;;18.80;46.50;;;;;;5046026;28;43122;-77
2022/01/11 09:05:19;;;;;;;;;;;18.80;46.40;;;;;;5046107;28;43624;-74
2022/01/11 09:07:45;;;;;;;;;;;18.80;46.40;;;;;;5046216;28;42913;-77
2022/01/11 09:10:11;;;;;;;;;;;18.80;46.80;;;;;;5033497;28;43822;-78
2022/01/11 09:12:37;;;;;;;;;;;18.80;43.40;;;;;;5039719;28;44346;-77
2022/01/11 09:15:07;;;;;;;;;;;18.70;39.80;;;;;;5021375;28;42957;-77
2022/01/11 09:17:39;;;;;;;;;;;18.70;33.30;;;;;;5034733;28;45396;-78
2022/01/11 09:20:07;;;;;;;;;;;18.70;34.90;;;;;;5019913;28;43053;-76
2022/01/11 09:22:33;;;;;;;;;;;18.60;29.70;;;;;;5035628;28;43584;-76
2022/01/11 09:24:59;;;;;;;;;;;18.60;28.90;;;;;;5032957;28;43529;-77
2022/01/11 09:27:24;;;;;;;;;;;18.50;29.00;;;;;;5037775;28;44097;-76
2022/01/11 09:29:50;;;;;;;;;;;18.50;29.30;;;;;;5027246;28;43201;-77
2022/01/11 09:32:15;;;;;;;;;;;18.40;28.80;;;;;;5035492;28;43739;-78
2022/01/11 09:34:41;;;;;;;;;;;18.20;28.10;;;;;;5044533;28;42909;-80
2022/01/11 09:37:08;;;;;;;;;;;18.20;29.30;;;;;;5042383;28;44237;-78
2022/01/11 09:39:36;;;;;;;;;;;18.30;30.60;;;;;;5042037;28;43112;-82
2022/01/11 09:42:05;;;;;;;;;;;18.30;32.20;;;;;;5026492;28;43751;-77
2022/01/11 09:44:32;;;;;;;;;;;18.40;33.30;;;;;;5024317;28;42976;-76
2022/01/11 09:46:58;;;;;;;;;;;18.40;34.50;;;;;;5029919;28;43075;-80
2022/01/11 09:49:23;;;;;;;;;;;18.50;35.80;;;;;;5032352;28;42940;-78
2022/01/11 09:51:50;;;;;;;;;;;18.50;36.80;;;;;;5026062;28;43060;-71
2022/01/11 09:54:17;;;;;;;;;;;18.60;37.50;;;;;;5025506;28;43032;-78
2022/01/11 09:56:43;;;;;;;;;;;18.70;38.20;;;;;;5031916;28;43415;-77
2022/01/11 09:59:08;;;;;;;;;;;18.70;38.70;;;;;;5038602;28;42830;-79
2022/01/11 10:01:36;;;;;;;;;;;18.80;39.10;;;;;;5038785;28;43989;-76
2022/01/11 10:04:01;;;;;;;;;;;19.00;39.20;;;;;;5024520;28;42980;-77
2022/01/11 10:06:27;;;;;;;;;;;19.10;39.30;;;;;;5028096;28;42764;-75
2022/01/11 10:09:08;;;;;;;;;;;19.20;39.40;;;;;;5042609;28;43358;-76
2022/01/11 10:11:37;;;;;;;;;;;19.30;39.60;;;;;;5040725;28;43007;-81
2022/01/11 10:14:20;;;;;;;;;;;19.30;39.90;;;;;;5024601;28;43116;-80
2022/01/11 10:16:46;;;;;;;;;;;19.20;40.10;;;;;;5034044;28;43063;-73
2022/01/11 10:19:22;;;;;;;;;;;19.20;40.50;;;;;;5032844;28;42957;-81
2022/01/11 10:21:50;;;;;;;;;;;19.20;40.80;;;;;;5026737;28;42961;-75
2022/01/11 10:24:23;;;;;;;;;;;19.10;41.10;;;;;;5027992;28;43247;-71
2022/01/11 10:26:49;;;;;;;;;;;19.10;41.10;;;;;;5034359;28;42815;-75
2022/01/11 10:29:38;;;;;;;;;;;19.10;41.70;;;;;;5041034;28;42920;-71
2022/01/11 10:32:10;;;;;;;;;;;19.10;41.80;;;;;;5014173;28;43031;-72
2022/01/11 10:34:36;;;;;;;;;;;19.10;41.90;;;;;;5031169;28;43757;-75
2022/01/11 10:37:03;;;;;;;;;;;19.00;42.00;;;;;;5026829;28;43699;-76
2022/01/11 10:39:33;;;;;;;;;;;19.00;42.20;;;;;;5037530;28;43050;-74
2022/01/11 10:41:58;;;;;;;;;;;19.00;42.40;;;;;;5024948;28;43192;-71
2022/01/11 10:44:44;;;;;;;;;;;19.00;42.60;;;;;;5038889;28;43035;-75
2022/01/11 10:47:10;;;;;;;;;;;19.00;42.50;;;;;;5024435;28;43856;-77
2022/01/11 10:49:36;;;;;;;;;;;19.00;42.70;;;;;;5037964;28;43392;-72
2022/01/11 10:52:37;;;;;;;;;;;19.00;42.90;;;;;;5041054;28;43023;-71
2022/01/11 10:55:04;;;;;;;;;;;19.00;42.80;;;;;;4957406;28;42990;-71
2022/01/11 10:57:31;;;;;;;;;;;19.00;42.90;;;;;;4961835;28;43550;-69
2022/01/11 11:00:17;;;;;;;;;;;19.10;43.10;;;;;;4961575;28;43036;-72
2022/01/11 11:02:45;;;;;;;;;;;19.10;43.10;;;;;;4959436;28;43074;-78
2022/01/11 11:05:13;;;;;;;;;;;19.10;43.30;;;;;;4960980;28;43272;-80
2022/01/11 11:07:39;;;;;;;;;;;19.10;43.40;;;;;;4956428;28;43138;-76
2022/01/11 11:10:05;;;;;;;;;;;19.10;43.90;;;;;;4963328;28;43575;-76
2022/01/11 11:12:30;;;;;;;;;;;19.10;44.50;;;;;;4971153;28;43097;-75
2022/01/11 11:14:56;;;;;;;;;;;19.10;45.10;;;;;;4964576;28;43053;-75
2022/01/11 11:17:29;;;;;;;;;;;19.10;44.50;;;;;;4960294;28;43431;-73
2022/01/11 11:19:56;;;;;;;;;;;19.80;45.10;;;;;;4945393;28;43145;-76
2022/01/11 11:22:21;;;;;;;;;;;19.10;44.80;;;;;;4962924;28;43402;-77
2022/01/11 11:24:47;;;;;;;;;;;19.20;43.80;;;;;;4961656;28;42866;-77
2022/01/11 11:27:12;;;;;;;;;;;19.20;43.50;;;;;;4957205;28;43919;-78
2022/01/11 11:29:38;;;;;;;;;;;19.10;37.00;;;;;;5008479;28;43069;-79
2022/01/11 11:32:05;;;;;;;;;;;19.20;43.20;;;;;;5026490;28;43100;-70
2022/01/11 11:34:31;;;;;;;;;;;19.20;43.90;;;;;;5038492;28;43046;-84
2022/01/11 11:36:59;;;;;;;;;;;19.20;44.30;;;;;;5044384;28;42965;-85
2022/01/11 11:39:25;;;;;;;;;;;19.20;44.80;;;;;;5045340;28;42911;-76
2022/01/11 11:41:52;;;;;;;;;;;19.20;44.70;;;;;;5043400;28;43512;-85
2022/01/11 11:44:24;;;;;;;;;;;19.20;44.50;;;;;;5044722;28;43019;-85
2022/01/11 11:46:50;;;;;;;;;;;19.20;44.80;;;;;;5044528;28;43379;-81
2022/01/11 11:49:17;;;;;;;;;;;19.20;44.80;;;;;;5044025;28;42900;-73
2022/01/11 11:51:44;;;;;;;;;;;19.20;44.90;;;;;;5044490;28;43016;-81
2022/01/11 11:54:10;;;;;;;;;;;19.20;44.80;;;;;;5044319;28;42975;-81
2022/01/11 11:56:36;;;;;;;;;;;19.20;44.80;;;;;;5044593;28;43591;-70
2022/01/11 11:59:05;;;;;;;;;;;19.20;44.90;;;;;;5041977;28;43033;-84
2022/01/11 12:01:31;;;;;;;;;;;19.20;44.80;;;;;;5024540;28;42952;-79
2022/01/11 12:03:56;;;;;;;;;;;19.20;44.60;;;;;;5028982;28;42973;-78
2022/01/11 12:06:26;;;;;;;;;;;19.20;38.40;;;;;;5042360;28;43766;-74
2022/01/11 12:09:04;;;;;;;;;;;19.10;37.70;;;;;;5041348;28;42978;-77
2022/01/11 12:11:34;;;;;;;;;;;19.10;38.70;;;;;;5042679;28;43291;-81
2022/01/11 12:13:59;;;;;;;;;;;19.10;31.30;;;;;;5039570;28;43254;-81
2022/01/11 12:16:25;;;;;;;;;;;19.10;30.30;;;;;;5043300;28;43679;-73
2022/01/11 12:18:54;;;;;;;;;;;19.00;29.70;;;;;;5043571;28;43011;-75
2022/01/11 12:21:20;;;;;;;;;;;19.00;29.50;;;;;;5043114;28;43040;-86
2022/01/11 12:23:47;;;;;;;;;;;18.90;31.20;;;;;;5043211;28;43120;-84
2022/01/11 12:26:16;;;;;;;;;;;18.80;30.80;;;;;;5043388;28;43754;-86
2022/01/11 12:28:45;;;;;;;;;;;18.60;29.00;;;;;;5044402;28;42925;-82
2022/01/11 12:31:22;;;;;;;;;;;18.40;28.90;;;;;;5044494;28;44104;-82
2022/01/11 12:33:48;;;;;;;;;;;18.30;28.80;;;;;;5043974;28;42900;-74
2022/01/11 12:36:14;;;;;;;;;;;18.20;42.30;;;;;;5043916;28;42887;-78
2022/01/11 12:38:58;;;;;;;;;;;18.10;28.80;;;;;;5044271;28;43140;-78
2022/01/11 12:41:31;;;;;;;;;;;18.20;29.40;;;;;;5043523;28;43752;-78
2022/01/11 12:44:23;;;;;;;;;;;18.00;29.30;;;;;;5043548;28;42895;-79
2022/01/11 12:46:59;;;;;;;;;;;18.10;29.10;;;;;;5040374;28;43021;-77
2022/01/11 12:49:25;;;;;;;;;;;17.80;29.20;;;;;;5025906;28;43127;-76
2022/01/11 12:51:53;;;;;;;;;;;17.70;29.20;;;;;;5044334;28;43557;-77
2022/01/11 12:54:28;;;;;;;;;;;17.80;29.40;;;;;;5044383;28;43271;-75
2022/01/11 12:56:55;;;;;;;;;;;17.70;29.60;;;;;;5043971;28;43891;-78
2022/01/11 12:59:22;;;;;;;;;;;17.60;29.50;;;;;;5042362;28;43044;-78
2022/01/11 13:01:57;;;;;;;;;;;17.60;29.50;;;;;;5043265;28;42908;-80
2022/01/11 13:04:55;;;;;;;;;;;17.50;29.20;;;;;;5043962;28;42892;-80
2022/01/11 13:07:24;;;;;;;;;;;17.50;29.50;;;;;;4988759;28;43080;-78
2022/01/11 13:09:58;;;;;;;;;;;17.50;29.70;;;;;;5023564;28;42850;-74
2022/01/11 13:12:25;;;;;;;;;;;17.30;29.60;;;;;;5022792;28;42831;-79
2022/01/11 13:15:10;;;;;;;;;;;17.40;29.50;;;;;;5024818;28;42955;-80
2022/01/11 13:17:54;;;;;;;;;;;17.30;29.50;;;;;;5026732;28;44076;-79
2022/01/11 13:20:20;;;;;;;;;;;17.10;29.50;;;;;;5026551;28;43000;-80
2022/01/11 13:25:53;;;;;;;;;;;17.10;29.70;;;;;;5021172;28;43043;-79
2022/01/11 13:28:33;;;;;;;;;;;17.20;29.90;;;;;;5025858;28;43492;-78
2022/01/11 13:30:58;;;;;;;;;;;17.10;30.10;;;;;;5026410;28;42937;-77
2022/01/11 13:33:26;;;;;;;;;;;16.90;30.00;;;;;;5026134;28;42988;-80
2022/01/11 13:35:52;;;;;;;;;;;16.80;29.90;;;;;;5028155;28;42984;-79
2022/01/11 13:38:17;;;;;;;;;;;16.80;29.90;;;;;;5027379;28;44095;-79
2022/01/11 13:40:44;;;;;;;;;;;16.70;29.90;;;;;;5027197;28;42950;-78
2022/01/11 13:43:13;;;;;;;;;;;16.90;29.80;;;;;;5026291;28;43408;-79
2022/01/11 13:45:40;;;;;;;;;;;16.90;29.60;;;;;;5026567;28;43024;-76
2022/01/11 13:48:14;;;;;;;;;;;17.00;29.70;;;;;;5026177;28;43715;-79
2022/01/11 13:50:54;;;;;;;;;;;17.00;29.00;;;;;;5025839;28;42902;-80
2022/01/11 13:53:24;;;;;;;;;;;17.00;29.20;;;;;;5044487;28;43063;-80
2022/01/11 13:55:54;;;;;;;;;;;16.90;29.00;;;;;;5046200;28;42928;-77
2022/01/11 13:58:20;;;;;;;;;;;16.80;29.20;;;;;;5046195;28;42984;-80
2022/01/11 14:00:46;;;;;;;;;;;16.80;29.40;;;;;;5040671;28;42996;-78
2022/01/11 14:03:17;;;;;;;;;;;16.90;29.50;;;;;;5023493;28;43444;-76
2022/01/11 14:05:43;;;;;;;;;;;16.90;29.80;;;;;;5043209;28;43296;-73
2022/01/11 14:08:10;;;;;;;;;;;16.90;30.00;;;;;;5045005;28;43481;-76
2022/01/11 14:10:37;;;;;;;;;;;17.00;30.20;;;;;;5044354;28;42972;-74
2022/01/11 14:13:07;;;;;;;;;;;17.00;30.30;;;;;;5046072;28;42980;-75
2022/01/11 14:15:32;;;;;;;;;;;17.10;30.30;;;;;;5046452;28;43094;-77
2022/01/11 14:17:59;;;;;;;;;;;17.20;30.90;;;;;;5045560;28;43015;-76
2022/01/11 14:20:34;;;;;;;;;;;17.20;31.10;;;;;;5046222;28;42786;-73
2022/01/11 14:23:00;;;;;;;;;;;17.30;30.40;;;;;;5045743;28;42941;-74